createdAt,value
2023-03-21T00:01:44.369Z,9.48
2023-03-21T00:06:41.175Z,9.50
2023-03-21T00:11:37.942Z,13.60
2023-03-21T00:16:35.735Z,16.25
2023-03-21T00:21:55.317Z,15.65
2023-03-21T00:27:00.210Z,18.63
2023-03-21T00:32:08.142Z,19.35
2023-03-21T00:37:06.741Z,16.23
2023-03-21T00:42:03.695Z,14.90
2023-03-21T00:47:07.466Z,16.10
2023-03-21T00:52:17.054Z,16.27
2023-03-21T00:57:20.158Z,17.08
2023-03-21T01:02:22.351Z,17.48
2023-03-21T01:07:20.665Z,17.15
2023-03-21T01:12:17.752Z,19.55
2023-03-21T01:17:14.799Z,17.25
2023-03-21T01:22:11.748Z,17.80
2023-03-21T01:27:09.258Z,16.98
2023-03-21T01:32:06.543Z,19.52
2023-03-21T01:37:03.570Z,18.30
2023-03-21T01:42:05.008Z,18.83
2023-03-21T01:47:11.853Z,18.90
2023-03-21T01:52:33.349Z,20.45
2023-03-21T01:57:45.242Z,19.85
2023-03-21T02:02:52.151Z,20.25
2023-03-21T02:08:04.046Z,18.45
2023-03-21T02:13:08.970Z,20.90
2023-03-21T02:18:16.993Z,23.65
2023-03-21T02:23:44.285Z,21.63
2023-03-21T02:28:47.068Z,20.92
2023-03-21T02:34:12.699Z,21.67
2023-03-21T02:39:18.602Z,17.40
2023-03-21T02:44:20.975Z,15.55
2023-03-21T02:49:23.201Z,15.57
2023-03-21T02:54:38.358Z,14.35
2023-03-21T02:59:53.233Z,15.00
2023-03-21T03:04:56.994Z,15.48
2023-03-21T03:10:17.051Z,14.75
2023-03-21T03:15:21.541Z,15.93
2023-03-21T03:20:26.541Z,15.57
2023-03-21T03:25:41.534Z,15.40
2023-03-21T03:31:05.516Z,14.88
2023-03-21T03:36:21.575Z,16.40
2023-03-21T03:41:27.054Z,16.05
2023-03-21T03:46:32.917Z,14.13
2023-03-21T03:51:35.907Z,16.15
2023-03-21T03:56:57.819Z,16.35
2023-03-21T04:01:54.959Z,15.50
2023-03-21T04:06:52.805Z,16.25
2023-03-21T04:11:52.513Z,15.77
2023-03-21T04:16:51.596Z,17.88
2023-03-21T04:21:48.533Z,16.52
2023-03-21T04:26:47.831Z,19.65
2023-03-21T04:31:58.267Z,20.92
2023-03-21T04:36:56.160Z,23.17
2023-03-21T04:41:53.257Z,23.00
2023-03-21T04:46:51.164Z,20.67
2023-03-21T04:51:49.312Z,18.33
2023-03-21T04:56:51.459Z,18.58
2023-03-21T05:01:49.622Z,21.88
2023-03-21T05:06:46.538Z,23.88
2023-03-21T05:11:46.875Z,24.85
2023-03-21T05:16:52.498Z,30.15
2023-03-21T05:21:52.829Z,26.87
2023-03-21T05:26:55.519Z,25.20
2023-03-21T05:31:56.177Z,23.67
2023-03-21T05:36:54.347Z,23.25
2023-03-21T05:41:54.962Z,21.77
2023-03-21T05:46:54.319Z,25.00
2023-03-21T05:52:03.912Z,25.45
2023-03-21T05:57:03.610Z,28.13
2023-03-21T06:02:25.976Z,26.85
2023-03-21T06:07:24.826Z,25.33
2023-03-21T06:12:22.521Z,24.23
2023-03-21T06:17:38.822Z,20.63
2023-03-21T06:22:39.626Z,21.92
2023-03-21T06:27:37.398Z,22.52
2023-03-21T06:32:39.377Z,22.25
2023-03-21T06:37:44.897Z,22.15
2023-03-21T06:42:50.969Z,23.77
2023-03-21T06:47:51.777Z,24.20
2023-03-21T06:53:08.434Z,21.08
2023-03-21T06:58:27.513Z,22.70
2023-03-21T07:03:33.209Z,21.27
2023-03-21T07:08:31.525Z,23.13
2023-03-21T07:13:29.279Z,22.63
2023-03-21T07:18:33.318Z,21.08
2023-03-21T07:23:32.380Z,21.38
2023-03-21T07:28:31.593Z,18.13
2023-03-21T07:33:28.751Z,18.80
2023-03-21T07:38:34.495Z,18.88
2023-03-21T07:43:39.929Z,18.23
2023-03-21T07:48:40.251Z,18.45
2023-03-21T07:53:43.313Z,18.60
2023-03-21T07:58:45.421Z,17.83
2023-03-21T08:03:58.818Z,20.38
2023-03-21T08:08:58.800Z,20.60
2023-03-21T08:13:57.719Z,18.55
2023-03-21T08:19:04.820Z,19.75
2023-03-21T08:24:15.390Z,19.02
2023-03-21T08:29:13.952Z,18.13
2023-03-21T08:34:19.226Z,19.30
2023-03-21T08:39:16.383Z,17.13
2023-03-21T08:44:16.927Z,16.15
2023-03-21T08:49:13.973Z,17.67
2023-03-21T08:54:22.285Z,17.98
2023-03-21T08:59:20.976Z,16.70
2023-03-21T09:04:32.137Z,15.95
2023-03-21T09:09:29.338Z,15.55
2023-03-21T09:14:28.998Z,15.70
2023-03-21T09:19:28.674Z,20.42
2023-03-21T09:24:27.593Z,18.85
2023-03-21T09:29:27.359Z,19.48
2023-03-21T09:34:28.324Z,19.13
2023-03-21T09:39:50.066Z,16.05
2023-03-21T09:45:02.184Z,17.60
2023-03-21T09:50:14.194Z,17.23
2023-03-21T09:55:19.369Z,15.50
2023-03-21T10:00:27.371Z,16.40
2023-03-21T10:05:28.002Z,17.75
2023-03-21T10:10:28.355Z,18.23
2023-03-21T10:15:26.747Z,15.48
2023-03-21T10:20:29.093Z,14.73
2023-03-21T10:25:31.075Z,14.77
2023-03-21T10:30:40.052Z,15.85
2023-03-21T10:35:39.736Z,16.48
2023-03-21T10:40:39.987Z,20.95
2023-03-21T10:45:37.145Z,14.90
2023-03-21T10:50:35.871Z,15.65
2023-03-21T10:55:35.369Z,15.20
2023-03-21T11:00:37.407Z,15.15
2023-03-21T11:05:37.273Z,13.85
2023-03-21T11:10:37.413Z,14.77
2023-03-21T11:15:42.190Z,14.65
2023-03-21T11:20:51.853Z,15.80
2023-03-21T11:25:55.226Z,13.55
2023-03-21T11:30:55.015Z,13.00
2023-03-21T11:36:03.053Z,14.52
2023-03-21T11:41:02.471Z,14.95
2023-03-21T11:46:05.490Z,15.57
2023-03-21T11:51:10.691Z,14.80
2023-03-21T12:01:27.363Z,12.95
2023-03-21T12:06:33.865Z,13.48
2023-03-21T12:11:40.241Z,14.02
2023-03-21T12:16:56.595Z,17.00
2023-03-21T12:22:05.400Z,13.77
2023-03-21T12:27:15.044Z,16.20
2023-03-21T12:32:40.735Z,14.23
2023-03-21T12:37:47.626Z,16.20
2023-03-21T12:43:22.319Z,16.55
2023-03-21T12:48:27.579Z,16.67
2023-03-21T12:53:35.541Z,18.83
2023-03-21T12:58:41.059Z,16.42
2023-03-21T13:03:44.737Z,12.27
2023-03-21T13:08:48.385Z,14.55
2023-03-21T13:13:51.226Z,16.27
2023-03-21T13:18:58.894Z,14.88
2023-03-21T13:24:00.729Z,16.85
2023-03-21T13:29:00.497Z,16.27
2023-03-21T13:33:59.796Z,16.38
2023-03-21T13:39:00.692Z,14.82
2023-03-21T13:44:15.987Z,13.55
2023-03-21T13:49:28.634Z,14.32
2023-03-21T13:54:52.602Z,14.02
2023-03-21T14:00:10.541Z,13.43
2023-03-21T14:05:20.086Z,13.85
2023-03-21T14:10:22.014Z,13.38
2023-03-21T14:15:22.267Z,12.70
2023-03-21T14:20:23.496Z,12.55
2023-03-21T14:25:23.254Z,13.25
2023-03-21T14:30:27.235Z,14.30
2023-03-21T14:35:28.704Z,12.38
2023-03-21T14:40:30.639Z,15.20
2023-03-21T14:45:34.398Z,14.25
2023-03-21T14:50:39.651Z,15.60
2023-03-21T15:00:49.495Z,15.05
2023-03-21T15:05:48.222Z,15.05
2023-03-21T15:11:06.271Z,16.60
2023-03-21T15:16:08.926Z,15.95
2023-03-21T15:21:10.217Z,17.52
2023-03-21T15:26:07.315Z,16.60
2023-03-21T15:31:06.710Z,16.02
2023-03-21T15:36:09.636Z,16.98
2023-03-21T15:41:25.436Z,16.08
2023-03-21T15:46:38.830Z,15.63
2023-03-21T15:51:36.169Z,15.38
2023-03-21T15:56:34.409Z,15.27
2023-03-21T16:01:38.266Z,16.20
2023-03-21T16:06:37.713Z,14.05
2023-03-21T16:11:39.436Z,14.43
2023-03-21T16:16:37.878Z,15.25
2023-03-21T16:21:37.754Z,16.17
2023-03-21T16:26:37.038Z,17.75
2023-03-21T16:31:36.659Z,15.85
2023-03-21T16:36:36.580Z,12.52
2023-03-21T16:41:36.392Z,13.43
2023-03-21T16:46:33.149Z,15.18
2023-03-21T16:51:32.925Z,27.50
2023-03-21T16:56:36.132Z,20.83
2023-03-21T17:01:37.736Z,20.00
2023-03-21T17:06:48.891Z,16.40
2023-03-21T17:11:49.206Z,17.13
2023-03-21T17:16:46.392Z,16.30
2023-03-21T17:21:48.617Z,17.73
2023-03-21T17:26:52.088Z,21.15
2023-03-21T17:31:53.282Z,23.50
2023-03-21T17:36:50.682Z,19.20
2023-03-21T17:41:49.122Z,20.52
2023-03-21T17:46:51.167Z,20.67
2023-03-21T17:51:51.414Z,22.13
2023-03-21T17:56:55.009Z,20.05
2023-03-21T18:01:56.899Z,20.95
2023-03-21T18:06:58.784Z,21.13
2023-03-21T18:11:55.795Z,22.88
2023-03-21T18:16:53.683Z,22.15
2023-03-21T18:21:50.790Z,23.15
2023-03-21T18:26:51.314Z,23.70
2023-03-21T18:32:06.331Z,24.38
2023-03-21T18:37:07.622Z,22.98
2023-03-21T18:42:05.222Z,23.60
2023-03-21T18:47:07.239Z,23.65
2023-03-21T18:52:06.074Z,21.55
2023-03-21T18:57:34.178Z,19.63
2023-03-21T19:02:22.853Z,23.13
2023-03-21T19:07:24.251Z,23.15
2023-03-21T19:12:21.271Z,22.35
2023-03-21T19:22:37.218Z,22.20
2023-03-21T19:27:39.828Z,22.88
2023-03-21T19:32:36.788Z,23.90
2023-03-21T19:37:35.568Z,22.05
2023-03-21T19:42:35.575Z,21.88
2023-03-21T19:47:32.800Z,20.02
2023-03-21T19:52:31.479Z,20.13
2023-03-21T19:57:28.256Z,21.98
2023-03-21T20:02:35.401Z,21.63
2023-03-21T20:07:32.834Z,24.60
2023-03-21T20:12:30.108Z,22.40
2023-03-21T20:17:28.413Z,24.60
2023-03-21T20:22:46.089Z,24.83
2023-03-21T20:27:43.883Z,22.92
2023-03-21T20:32:43.594Z,22.75
2023-03-21T20:37:41.054Z,21.83
2023-03-21T20:42:38.802Z,22.15
2023-03-21T20:47:35.907Z,23.35
2023-03-21T20:57:51.031Z,24.58
2023-03-21T21:02:49.293Z,25.38
2023-03-21T21:07:48.349Z,24.90
2023-03-21T21:12:45.279Z,24.23
2023-03-21T21:23:00.893Z,26.02
2023-03-21T21:27:57.968Z,24.88
2023-03-21T21:32:54.866Z,25.50
2023-03-21T21:37:53.036Z,24.60
2023-03-21T21:42:50.883Z,26.50
2023-03-21T21:47:48.030Z,28.45
2023-03-21T21:52:51.755Z,28.35
2023-03-21T21:57:49.985Z,26.63
2023-03-21T22:02:47.769Z,27.33
2023-03-21T22:07:44.951Z,29.88
2023-03-21T22:12:41.797Z,31.45
2023-03-21T22:17:39.935Z,32.85
2023-03-21T22:22:38.024Z,32.30
2023-03-21T22:27:36.121Z,29.95
2023-03-21T22:32:33.641Z,28.25
2023-03-21T22:37:31.067Z,30.63
2023-03-21T22:42:28.742Z,27.98
2023-03-21T22:47:25.684Z,28.10
2023-03-21T22:52:22.457Z,29.40
2023-03-21T22:57:20.145Z,30.52
2023-03-21T23:02:18.021Z,29.13
2023-03-21T23:07:15.087Z,30.10
2023-03-21T23:12:13.537Z,31.45
2023-03-21T23:17:11.953Z,31.40
2023-03-21T23:22:09.647Z,30.98
2023-03-21T23:27:06.451Z,31.27
2023-03-21T23:32:03.420Z,31.45
2023-03-21T23:37:00.217Z,30.55
2023-03-21T23:41:58.292Z,27.60
2023-03-21T23:46:55.231Z,28.98
2023-03-21T23:51:52.013Z,27.13
2023-03-21T23:56:48.888Z,27.20
